sensor_id;sensor_type;location;lat;lon;timestamp;P1;durP1;ratioP1;P2;durP2;ratioP2
46006;SDS011;31738;50.188;8.524;2024-03-08T00:00:34;35.45;;;15.30;;
46006;SDS011;31738;50.188;8.524;2024-03-08T00:03:03;31.25;;;14.40;;
46006;SDS011;31738;50.188;8.524;2024-03-08T00:05:34;36.42;;;15.30;;
46006;SDS011;31738;50.188;8.524;2024-03-08T00:07:59;33.35;;;14.98;;
46006;SDS011;31738;50.188;8.524;2024-03-08T00:10:25;35.20;;;14.27;;
46006;SDS011;31738;50.188;8.524;2024-03-08T00:12:53;32.95;;;14.77;;
46006;SDS011;31738;50.188;8.524;2024-03-08T00:15:26;33.45;;;14.85;;
46006;SDS011;31738;50.188;8.524;2024-03-08T00:17:51;32.15;;;15.25;;
46006;SDS011;31738;50.188;8.524;2024-03-08T00:20:17;35.45;;;15.23;;
46006;SDS011;31738;50.188;8.524;2024-03-08T00:22:43;34.33;;;14.25;;
46006;SDS011;31738;50.188;8.524;2024-03-08T00:25:17;36.33;;;15.30;;
46006;SDS011;31738;50.188;8.524;2024-03-08T00:27:43;37.03;;;15.63;;
46006;SDS011;31738;50.188;8.524;2024-03-08T00:30:12;37.53;;;16.02;;
46006;SDS011;31738;50.188;8.524;2024-03-08T00:32:38;36.42;;;15.60;;
46006;SDS011;31738;50.188;8.524;2024-03-08T00:35:03;33.80;;;15.07;;
46006;SDS011;31738;50.188;8.524;2024-03-08T00:37:29;32.25;;;15.45;;
46006;SDS011;31738;50.188;8.524;2024-03-08T00:39:55;35.88;;;15.98;;
46006;SDS011;31738;50.188;8.524;2024-03-08T00:42:21;36.17;;;15.80;;
46006;SDS011;31738;50.188;8.524;2024-03-08T00:44:49;39.00;;;15.88;;
46006;SDS011;31738;50.188;8.524;2024-03-08T00:47:16;33.97;;;15.52;;
46006;SDS011;31738;50.188;8.524;2024-03-08T00:49:41;34.80;;;15.95;;
46006;SDS011;31738;50.188;8.524;2024-03-08T00:52:07;34.75;;;14.63;;
46006;SDS011;31738;50.188;8.524;2024-03-08T00:54:35;37.30;;;15.70;;
46006;SDS011;31738;50.188;8.524;2024-03-08T00:57:01;35.90;;;16.63;;
46006;SDS011;31738;50.188;8.524;2024-03-08T00:59:28;35.78;;;14.65;;
46006;SDS011;31738;50.188;8.524;2024-03-08T01:01:59;37.47;;;15.98;;
46006;SDS011;31738;50.188;8.524;2024-03-08T01:04:26;35.28;;;15.68;;
46006;SDS011;31738;50.188;8.524;2024-03-08T01:06:54;36.78;;;14.88;;
46006;SDS011;31738;50.188;8.524;2024-03-08T01:09:24;38.00;;;16.60;;
46006;SDS011;31738;50.188;8.524;2024-03-08T01:11:52;38.50;;;15.88;;
46006;SDS011;31738;50.188;8.524;2024-03-08T01:14:19;34.53;;;15.07;;
46006;SDS011;31738;50.188;8.524;2024-03-08T01:16:48;34.38;;;15.25;;
46006;SDS011;31738;50.188;8.524;2024-03-08T01:19:16;39.17;;;15.45;;
46006;SDS011;31738;50.188;8.524;2024-03-08T01:21:53;33.28;;;15.73;;
46006;SDS011;31738;50.188;8.524;2024-03-08T01:24:24;39.25;;;15.30;;
46006;SDS011;31738;50.188;8.524;2024-03-08T01:26:50;35.03;;;15.32;;
46006;SDS011;31738;50.188;8.524;2024-03-08T01:29:16;30.98;;;14.98;;
46006;SDS011;31738;50.188;8.524;2024-03-08T01:31:41;36.58;;;15.77;;
46006;SDS011;31738;50.188;8.524;2024-03-08T01:34:08;35.05;;;15.70;;
46006;SDS011;31738;50.188;8.524;2024-03-08T01:36:36;36.58;;;15.25;;
46006;SDS011;31738;50.188;8.524;2024-03-08T01:39:02;34.92;;;15.07;;
46006;SDS011;31738;50.188;8.524;2024-03-08T01:41:36;34.22;;;15.30;;
46006;SDS011;31738;50.188;8.524;2024-03-08T01:44:02;36.05;;;16.13;;
46006;SDS011;31738;50.188;8.524;2024-03-08T01:46:30;35.78;;;15.20;;
46006;SDS011;31738;50.188;8.524;2024-03-08T01:49:00;33.33;;;14.70;;
46006;SDS011;31738;50.188;8.524;2024-03-08T01:51:35;36.53;;;16.17;;
46006;SDS011;31738;50.188;8.524;2024-03-08T01:54:01;33.95;;;15.18;;
46006;SDS011;31738;50.188;8.524;2024-03-08T01:56:28;34.80;;;15.52;;
46006;SDS011;31738;50.188;8.524;2024-03-08T01:58:54;39.90;;;15.75;;
46006;SDS011;31738;50.188;8.524;2024-03-08T02:01:20;33.05;;;14.85;;
46006;SDS011;31738;50.188;8.524;2024-03-08T02:03:46;39.30;;;15.90;;
46006;SDS011;31738;50.188;8.524;2024-03-08T02:06:11;36.03;;;15.20;;
46006;SDS011;31738;50.188;8.524;2024-03-08T02:08:47;32.38;;;14.45;;
46006;SDS011;31738;50.188;8.524;2024-03-08T02:11:16;37.47;;;16.38;;
46006;SDS011;31738;50.188;8.524;2024-03-08T02:13:47;33.55;;;16.60;;
46006;SDS011;31738;50.188;8.524;2024-03-08T02:16:19;33.70;;;15.18;;
46006;SDS011;31738;50.188;8.524;2024-03-08T02:18:53;35.83;;;16.17;;
46006;SDS011;31738;50.188;8.524;2024-03-08T02:21:19;34.67;;;15.98;;
46006;SDS011;31738;50.188;8.524;2024-03-08T02:23:44;42.75;;;15.93;;
46006;SDS011;31738;50.188;8.524;2024-03-08T02:26:10;39.80;;;16.02;;
46006;SDS011;31738;50.188;8.524;2024-03-08T02:28:39;40.05;;;16.75;;
46006;SDS011;31738;50.188;8.524;2024-03-08T02:31:11;36.20;;;15.98;;
46006;SDS011;31738;50.188;8.524;2024-03-08T02:33:56;35.67;;;15.70;;
46006;SDS011;31738;50.188;8.524;2024-03-08T02:36:24;40.20;;;16.10;;
46006;SDS011;31738;50.188;8.524;2024-03-08T02:38:49;45.00;;;16.02;;
46006;SDS011;31738;50.188;8.524;2024-03-08T02:41:19;38.78;;;16.13;;
46006;SDS011;31738;50.188;8.524;2024-03-08T02:43:44;35.80;;;16.50;;
46006;SDS011;31738;50.188;8.524;2024-03-08T02:46:14;38.45;;;16.63;;
46006;SDS011;31738;50.188;8.524;2024-03-08T02:48:46;37.55;;;15.77;;
46006;SDS011;31738;50.188;8.524;2024-03-08T02:51:12;42.95;;;17.38;;
46006;SDS011;31738;50.188;8.524;2024-03-08T02:53:56;40.65;;;17.02;;
46006;SDS011;31738;50.188;8.524;2024-03-08T02:56:21;38.38;;;15.98;;
46006;SDS011;31738;50.188;8.524;2024-03-08T02:58:50;43.13;;;17.48;;
46006;SDS011;31738;50.188;8.524;2024-03-08T03:01:15;38.75;;;16.60;;
46006;SDS011;31738;50.188;8.524;2024-03-08T03:03:41;45.35;;;18.20;;
46006;SDS011;31738;50.188;8.524;2024-03-08T03:06:12;41.28;;;16.55;;
46006;SDS011;31738;50.188;8.524;2024-03-08T03:08:41;42.42;;;16.85;;
46006;SDS011;31738;50.188;8.524;2024-03-08T03:11:10;39.20;;;16.35;;
46006;SDS011;31738;50.188;8.524;2024-03-08T03:13:44;40.63;;;16.10;;
46006;SDS011;31738;50.188;8.524;2024-03-08T03:16:22;38.97;;;16.35;;
46006;SDS011;31738;50.188;8.524;2024-03-08T03:18:48;46.17;;;16.23;;
46006;SDS011;31738;50.188;8.524;2024-03-08T03:21:14;42.40;;;17.02;;
46006;SDS011;31738;50.188;8.524;2024-03-08T03:23:40;40.92;;;17.05;;
46006;SDS011;31738;50.188;8.524;2024-03-08T03:26:06;44.30;;;18.27;;
46006;SDS011;31738;50.188;8.524;2024-03-08T03:28:37;42.83;;;16.27;;
46006;SDS011;31738;50.188;8.524;2024-03-08T03:31:07;35.60;;;16.52;;
46006;SDS011;31738;50.188;8.524;2024-03-08T03:33:35;41.22;;;17.65;;
46006;SDS011;31738;50.188;8.524;2024-03-08T03:36:02;45.58;;;16.75;;
46006;SDS011;31738;50.188;8.524;2024-03-08T03:38:39;39.83;;;16.52;;
46006;SDS011;31738;50.188;8.524;2024-03-08T03:41:07;39.95;;;16.95;;
46006;SDS011;31738;50.188;8.524;2024-03-08T03:46:05;36.38;;;15.95;;
46006;SDS011;31738;50.188;8.524;2024-03-08T03:48:32;43.08;;;17.95;;
46006;SDS011;31738;50.188;8.524;2024-03-08T03:50:57;44.35;;;18.83;;
46006;SDS011;31738;50.188;8.524;2024-03-08T03:53:23;39.20;;;17.60;;
46006;SDS011;31738;50.188;8.524;2024-03-08T03:55:51;38.72;;;17.08;;
46006;SDS011;31738;50.188;8.524;2024-03-08T03:58:16;44.03;;;17.65;;
46006;SDS011;31738;50.188;8.524;2024-03-08T04:00:47;46.55;;;18.48;;
46006;SDS011;31738;50.188;8.524;2024-03-08T04:03:13;47.05;;;18.77;;
46006;SDS011;31738;50.188;8.524;2024-03-08T04:05:39;43.20;;;18.10;;
46006;SDS011;31738;50.188;8.524;2024-03-08T04:08:05;43.03;;;17.23;;
46006;SDS011;31738;50.188;8.524;2024-03-08T04:10:31;43.60;;;17.35;;
46006;SDS011;31738;50.188;8.524;2024-03-08T04:12:56;40.63;;;16.88;;
46006;SDS011;31738;50.188;8.524;2024-03-08T04:15:22;44.50;;;17.98;;
46006;SDS011;31738;50.188;8.524;2024-03-08T04:17:48;44.85;;;18.00;;
46006;SDS011;31738;50.188;8.524;2024-03-08T04:20:13;41.72;;;17.00;;
46006;SDS011;31738;50.188;8.524;2024-03-08T04:22:39;41.10;;;17.80;;
46006;SDS011;31738;50.188;8.524;2024-03-08T04:25:05;43.13;;;17.08;;
46006;SDS011;31738;50.188;8.524;2024-03-08T04:27:32;47.63;;;18.30;;
46006;SDS011;31738;50.188;8.524;2024-03-08T04:29:58;43.30;;;17.67;;
46006;SDS011;31738;50.188;8.524;2024-03-08T04:32:24;43.35;;;17.77;;
46006;SDS011;31738;50.188;8.524;2024-03-08T04:34:50;45.47;;;18.55;;
46006;SDS011;31738;50.188;8.524;2024-03-08T04:37:15;46.15;;;17.80;;
46006;SDS011;31738;50.188;8.524;2024-03-08T04:39:46;41.00;;;17.25;;
46006;SDS011;31738;50.188;8.524;2024-03-08T04:42:12;45.08;;;19.17;;
46006;SDS011;31738;50.188;8.524;2024-03-08T04:44:39;43.05;;;17.25;;
46006;SDS011;31738;50.188;8.524;2024-03-08T04:47:04;40.63;;;16.52;;
46006;SDS011;31738;50.188;8.524;2024-03-08T04:49:31;42.28;;;17.23;;
46006;SDS011;31738;50.188;8.524;2024-03-08T04:52:00;44.72;;;18.27;;
46006;SDS011;31738;50.188;8.524;2024-03-08T04:54:27;44.25;;;18.23;;
46006;SDS011;31738;50.188;8.524;2024-03-08T04:56:53;42.47;;;17.05;;
46006;SDS011;31738;50.188;8.524;2024-03-08T04:59:19;46.97;;;19.13;;
46006;SDS011;31738;50.188;8.524;2024-03-08T05:01:44;47.08;;;18.90;;
46006;SDS011;31738;50.188;8.524;2024-03-08T05:04:09;45.50;;;18.05;;
46006;SDS011;31738;50.188;8.524;2024-03-08T05:06:35;45.58;;;17.75;;
46006;SDS011;31738;50.188;8.524;2024-03-08T05:09:01;44.20;;;18.17;;
46006;SDS011;31738;50.188;8.524;2024-03-08T05:11:39;44.72;;;18.30;;
46006;SDS011;31738;50.188;8.524;2024-03-08T05:14:09;45.75;;;18.65;;
46006;SDS011;31738;50.188;8.524;2024-03-08T05:16:35;39.92;;;17.25;;
46006;SDS011;31738;50.188;8.524;2024-03-08T05:19:01;52.60;;;19.23;;
46006;SDS011;31738;50.188;8.524;2024-03-08T05:21:27;42.17;;;18.23;;
46006;SDS011;31738;50.188;8.524;2024-03-08T05:23:54;47.50;;;19.23;;
46006;SDS011;31738;50.188;8.524;2024-03-08T05:26:20;44.55;;;17.15;;
46006;SDS011;31738;50.188;8.524;2024-03-08T05:28:47;42.20;;;17.80;;
46006;SDS011;31738;50.188;8.524;2024-03-08T05:31:20;44.90;;;17.83;;
46006;SDS011;31738;50.188;8.524;2024-03-08T05:33:49;40.75;;;17.33;;
46006;SDS011;31738;50.188;8.524;2024-03-08T05:36:15;38.30;;;17.75;;
46006;SDS011;31738;50.188;8.524;2024-03-08T05:38:44;46.38;;;19.42;;
46006;SDS011;31738;50.188;8.524;2024-03-08T05:41:09;44.33;;;17.80;;
46006;SDS011;31738;50.188;8.524;2024-03-08T05:43:37;47.47;;;18.15;;
46006;SDS011;31738;50.188;8.524;2024-03-08T05:46:02;44.58;;;17.70;;
46006;SDS011;31738;50.188;8.524;2024-03-08T05:48:29;45.33;;;18.52;;
46006;SDS011;31738;50.188;8.524;2024-03-08T05:50:57;49.78;;;19.52;;
46006;SDS011;31738;50.188;8.524;2024-03-08T05:53:23;46.45;;;18.20;;
46006;SDS011;31738;50.188;8.524;2024-03-08T05:55:48;46.67;;;19.73;;
46006;SDS011;31738;50.188;8.524;2024-03-08T05:58:14;43.58;;;18.33;;
46006;SDS011;31738;50.188;8.524;2024-03-08T06:00:40;46.58;;;18.50;;
46006;SDS011;31738;50.188;8.524;2024-03-08T06:03:06;40.67;;;17.73;;
46006;SDS011;31738;50.188;8.524;2024-03-08T06:05:31;49.05;;;18.95;;
46006;SDS011;31738;50.188;8.524;2024-03-08T06:07:57;45.83;;;19.45;;
46006;SDS011;31738;50.188;8.524;2024-03-08T06:10:22;44.17;;;18.40;;
46006;SDS011;31738;50.188;8.524;2024-03-08T06:12:48;48.42;;;18.88;;
46006;SDS011;31738;50.188;8.524;2024-03-08T06:15:13;42.20;;;17.63;;
46006;SDS011;31738;50.188;8.524;2024-03-08T06:17:42;43.35;;;18.08;;
46006;SDS011;31738;50.188;8.524;2024-03-08T06:20:07;46.70;;;19.13;;
46006;SDS011;31738;50.188;8.524;2024-03-08T06:22:37;52.28;;;19.98;;
46006;SDS011;31738;50.188;8.524;2024-03-08T06:59:28;46.88;;;18.90;;
46006;SDS011;31738;50.188;8.524;2024-03-08T07:01:57;48.95;;;18.95;;
46006;SDS011;31738;50.188;8.524;2024-03-08T07:04:28;43.58;;;18.20;;
46006;SDS011;31738;50.188;8.524;2024-03-08T07:07:02;52.67;;;20.83;;
46006;SDS011;31738;50.188;8.524;2024-03-08T07:09:27;48.03;;;18.83;;
46006;SDS011;31738;50.188;8.524;2024-03-08T07:11:53;51.42;;;19.10;;
46006;SDS011;31738;50.188;8.524;2024-03-08T07:14:25;53.28;;;19.33;;
46006;SDS011;31738;50.188;8.524;2024-03-08T07:17:00;46.15;;;18.20;;
46006;SDS011;31738;50.188;8.524;2024-03-08T07:19:30;45.83;;;18.85;;
46006;SDS011;31738;50.188;8.524;2024-03-08T07:21:58;51.17;;;21.00;;
46006;SDS011;31738;50.188;8.524;2024-03-08T07:24:24;49.33;;;18.77;;
46006;SDS011;31738;50.188;8.524;2024-03-08T07:27:36;47.85;;;18.80;;
46006;SDS011;31738;50.188;8.524;2024-03-08T07:30:13;45.88;;;18.63;;
46006;SDS011;31738;50.188;8.524;2024-03-08T07:33:16;46.45;;;18.73;;
46006;SDS011;31738;50.188;8.524;2024-03-08T07:35:42;45.10;;;18.20;;
46006;SDS011;31738;50.188;8.524;2024-03-08T07:38:22;49.05;;;18.60;;
46006;SDS011;31738;50.188;8.524;2024-03-08T07:40:51;48.65;;;18.90;;
46006;SDS011;31738;50.188;8.524;2024-03-08T07:43:17;45.30;;;18.15;;
46006;SDS011;31738;50.188;8.524;2024-03-08T07:45:43;47.78;;;18.05;;
46006;SDS011;31738;50.188;8.524;2024-03-08T07:48:14;46.70;;;19.27;;
46006;SDS011;31738;50.188;8.524;2024-03-08T07:50:48;46.75;;;19.83;;
46006;SDS011;31738;50.188;8.524;2024-03-08T07:53:15;44.88;;;18.35;;
46006;SDS011;31738;50.188;8.524;2024-03-08T07:58:16;44.30;;;19.30;;
46006;SDS011;31738;50.188;8.524;2024-03-08T08:00:51;45.78;;;18.35;;
46006;SDS011;31738;50.188;8.524;2024-03-08T08:03:29;46.13;;;18.85;;
46006;SDS011;31738;50.188;8.524;2024-03-08T08:06:23;43.97;;;17.42;;
46006;SDS011;31738;50.188;8.524;2024-03-08T08:09:07;47.42;;;19.02;;
46006;SDS011;31738;50.188;8.524;2024-03-08T08:11:53;43.17;;;19.02;;
46006;SDS011;31738;50.188;8.524;2024-03-08T08:14:28;49.13;;;18.95;;
46006;SDS011;31738;50.188;8.524;2024-03-08T08:17:27;39.08;;;16.38;;
46006;SDS011;31738;50.188;8.524;2024-03-08T08:20:33;41.97;;;17.85;;
46006;SDS011;31738;50.188;8.524;2024-03-08T08:23:53;53.65;;;20.10;;
46006;SDS011;31738;50.188;8.524;2024-03-08T08:26:20;37.83;;;14.30;;
46006;SDS011;31738;50.188;8.524;2024-03-08T08:28:46;44.95;;;18.70;;
46006;SDS011;31738;50.188;8.524;2024-03-08T08:31:14;46.33;;;19.10;;
46006;SDS011;31738;50.188;8.524;2024-03-08T08:33:40;35.50;;;15.65;;
46006;SDS011;31738;50.188;8.524;2024-03-08T08:36:06;45.22;;;19.63;;
46006;SDS011;31738;50.188;8.524;2024-03-08T08:38:31;44.33;;;18.63;;
46006;SDS011;31738;50.188;8.524;2024-03-08T08:40:57;49.17;;;19.88;;
46006;SDS011;31738;50.188;8.524;2024-03-08T08:43:22;44.05;;;19.27;;
46006;SDS011;31738;50.188;8.524;2024-03-08T08:45:50;29.95;;;12.05;;
46006;SDS011;31738;50.188;8.524;2024-03-08T08:48:19;41.17;;;17.70;;
46006;SDS011;31738;50.188;8.524;2024-03-08T08:50:45;47.65;;;19.30;;
46006;SDS011;31738;50.188;8.524;2024-03-08T08:53:12;46.05;;;19.45;;
46006;SDS011;31738;50.188;8.524;2024-03-08T08:55:39;46.88;;;19.35;;
46006;SDS011;31738;50.188;8.524;2024-03-08T08:58:05;46.67;;;18.02;;
46006;SDS011;31738;50.188;8.524;2024-03-08T09:00:32;45.15;;;20.15;;
46006;SDS011;31738;50.188;8.524;2024-03-08T09:02:59;47.35;;;19.20;;
46006;SDS011;31738;50.188;8.524;2024-03-08T09:05:25;45.72;;;19.83;;
46006;SDS011;31738;50.188;8.524;2024-03-08T09:07:51;47.25;;;20.15;;
46006;SDS011;31738;50.188;8.524;2024-03-08T09:10:18;41.63;;;18.27;;
46006;SDS011;31738;50.188;8.524;2024-03-08T09:12:44;35.53;;;15.90;;
46006;SDS011;31738;50.188;8.524;2024-03-08T09:15:10;40.08;;;17.55;;
46006;SDS011;31738;50.188;8.524;2024-03-08T09:17:38;39.70;;;18.50;;
46006;SDS011;31738;50.188;8.524;2024-03-08T09:20:07;41.55;;;19.33;;
46006;SDS011;31738;50.188;8.524;2024-03-08T09:22:35;43.88;;;19.63;;
46006;SDS011;31738;50.188;8.524;2024-03-08T09:25:00;40.70;;;18.33;;
46006;SDS011;31738;50.188;8.524;2024-03-08T09:27:26;40.83;;;19.00;;
46006;SDS011;31738;50.188;8.524;2024-03-08T09:29:53;43.08;;;16.20;;
46006;SDS011;31738;50.188;8.524;2024-03-08T09:32:19;40.88;;;19.00;;
46006;SDS011;31738;50.188;8.524;2024-03-08T09:34:44;38.75;;;16.83;;
46006;SDS011;31738;50.188;8.524;2024-03-08T09:37:10;40.97;;;18.85;;
46006;SDS011;31738;50.188;8.524;2024-03-08T09:39:35;38.90;;;17.35;;
46006;SDS011;31738;50.188;8.524;2024-03-08T09:42:01;30.17;;;13.50;;
46006;SDS011;31738;50.188;8.524;2024-03-08T09:44:27;37.63;;;16.98;;
46006;SDS011;31738;50.188;8.524;2024-03-08T09:47:04;34.67;;;16.13;;
46006;SDS011;31738;50.188;8.524;2024-03-08T09:49:34;33.83;;;16.30;;
46006;SDS011;31738;50.188;8.524;2024-03-08T09:51:59;36.55;;;17.08;;
46006;SDS011;31738;50.188;8.524;2024-03-08T09:54:25;36.83;;;16.73;;
46006;SDS011;31738;50.188;8.524;2024-03-08T09:57:03;37.03;;;14.73;;
46006;SDS011;31738;50.188;8.524;2024-03-08T09:59:42;33.13;;;14.60;;
46006;SDS011;31738;50.188;8.524;2024-03-08T10:02:15;34.90;;;16.27;;
46006;SDS011;31738;50.188;8.524;2024-03-08T10:04:41;34.78;;;15.85;;
46006;SDS011;31738;50.188;8.524;2024-03-08T10:07:07;39.83;;;17.48;;
46006;SDS011;31738;50.188;8.524;2024-03-08T10:09:38;36.60;;;17.95;;
46006;SDS011;31738;50.188;8.524;2024-03-08T10:12:04;39.50;;;17.35;;
46006;SDS011;31738;50.188;8.524;2024-03-08T10:14:30;30.75;;;13.68;;
46006;SDS011;31738;50.188;8.524;2024-03-08T10:16:59;36.03;;;16.42;;
46006;SDS011;31738;50.188;8.524;2024-03-08T10:19:31;35.53;;;16.08;;
46006;SDS011;31738;50.188;8.524;2024-03-08T10:22:02;34.72;;;16.50;;
46006;SDS011;31738;50.188;8.524;2024-03-08T10:24:29;32.30;;;15.48;;
46006;SDS011;31738;50.188;8.524;2024-03-08T10:26:59;36.55;;;16.73;;
46006;SDS011;31738;50.188;8.524;2024-03-08T10:29:32;32.28;;;15.02;;
46006;SDS011;31738;50.188;8.524;2024-03-08T10:31:58;32.63;;;15.10;;
46006;SDS011;31738;50.188;8.524;2024-03-08T10:34:26;31.83;;;15.18;;
46006;SDS011;31738;50.188;8.524;2024-03-08T10:37:03;28.25;;;12.98;;
46006;SDS011;31738;50.188;8.524;2024-03-08T10:39:42;36.13;;;15.75;;
46006;SDS011;31738;50.188;8.524;2024-03-08T10:42:18;27.02;;;12.90;;
46006;SDS011;31738;50.188;8.524;2024-03-08T10:44:53;29.27;;;14.68;;
46006;SDS011;31738;50.188;8.524;2024-03-08T10:47:33;35.05;;;16.30;;
46006;SDS011;31738;50.188;8.524;2024-03-08T10:50:10;31.88;;;15.45;;
46006;SDS011;31738;50.188;8.524;2024-03-08T10:52:38;28.45;;;14.73;;
46006;SDS011;31738;50.188;8.524;2024-03-08T10:55:17;32.47;;;15.32;;
46006;SDS011;31738;50.188;8.524;2024-03-08T10:57:46;27.60;;;12.63;;
46006;SDS011;31738;50.188;8.524;2024-03-08T11:00:23;32.75;;;14.95;;
46006;SDS011;31738;50.188;8.524;2024-03-08T11:02:52;32.60;;;15.30;;
46006;SDS011;31738;50.188;8.524;2024-03-08T11:05:58;30.30;;;14.70;;
46006;SDS011;31738;50.188;8.524;2024-03-08T11:08:23;30.70;;;13.93;;
46006;SDS011;31738;50.188;8.524;2024-03-08T11:11:28;28.13;;;12.68;;
46006;SDS011;31738;50.188;8.524;2024-03-08T11:14:02;29.60;;;14.27;;
46006;SDS011;31738;50.188;8.524;2024-03-08T11:21:36;26.85;;;13.23;;
46006;SDS011;31738;50.188;8.524;2024-03-08T11:24:23;25.75;;;12.70;;
46006;SDS011;31738;50.188;8.524;2024-03-08T11:27:09;25.67;;;11.95;;
46006;SDS011;31738;50.188;8.524;2024-03-08T11:29:51;29.38;;;13.35;;
46006;SDS011;31738;50.188;8.524;2024-03-08T11:32:52;23.60;;;12.80;;
46006;SDS011;31738;50.188;8.524;2024-03-08T11:35:23;27.30;;;12.85;;
46006;SDS011;31738;50.188;8.524;2024-03-08T11:37:52;25.92;;;12.38;;
46006;SDS011;31738;50.188;8.524;2024-03-08T11:40:22;19.17;;;10.15;;
46006;SDS011;31738;50.188;8.524;2024-03-08T11:42:58;22.48;;;11.63;;
46006;SDS011;31738;50.188;8.524;2024-03-08T11:45:35;15.20;;;6.53;;
46006;SDS011;31738;50.188;8.524;2024-03-08T11:48:08;19.17;;;9.48;;
46006;SDS011;31738;50.188;8.524;2024-03-08T11:50:43;18.05;;;9.05;;
46006;SDS011;31738;50.188;8.524;2024-03-08T11:53:32;28.02;;;12.88;;
46006;SDS011;31738;50.188;8.524;2024-03-08T11:56:27;23.38;;;12.15;;
46006;SDS011;31738;50.188;8.524;2024-03-08T11:58:54;21.38;;;11.45;;
46006;SDS011;31738;50.188;8.524;2024-03-08T12:01:38;24.00;;;11.82;;
46006;SDS011;31738;50.188;8.524;2024-03-08T12:04:19;25.27;;;12.18;;
46006;SDS011;31738;50.188;8.524;2024-03-08T12:06:50;24.00;;;11.63;;
46006;SDS011;31738;50.188;8.524;2024-03-08T12:09:43;23.13;;;10.90;;
46006;SDS011;31738;50.188;8.524;2024-03-08T12:12:15;26.73;;;12.38;;
46006;SDS011;31738;50.188;8.524;2024-03-08T12:14:52;22.75;;;11.90;;
46006;SDS011;31738;50.188;8.524;2024-03-08T12:17:20;25.73;;;11.57;;
46006;SDS011;31738;50.188;8.524;2024-03-08T12:19:48;24.92;;;11.32;;
46006;SDS011;31738;50.188;8.524;2024-03-08T12:22:14;27.27;;;11.93;;
46006;SDS011;31738;50.188;8.524;2024-03-08T12:24:40;23.02;;;11.20;;
46006;SDS011;31738;50.188;8.524;2024-03-08T12:27:21;25.80;;;11.60;;
46006;SDS011;31738;50.188;8.524;2024-03-08T12:29:54;23.83;;;11.25;;
46006;SDS011;31738;50.188;8.524;2024-03-08T12:32:20;25.80;;;11.55;;
46006;SDS011;31738;50.188;8.524;2024-03-08T12:34:52;22.63;;;11.10;;
46006;SDS011;31738;50.188;8.524;2024-03-08T12:37:18;22.38;;;11.68;;
46006;SDS011;31738;50.188;8.524;2024-03-08T12:39:44;24.10;;;11.73;;
46006;SDS011;31738;50.188;8.524;2024-03-08T12:42:09;21.20;;;10.88;;
46006;SDS011;31738;50.188;8.524;2024-03-08T12:44:35;23.58;;;10.90;;
46006;SDS011;31738;50.188;8.524;2024-03-08T12:47:01;23.65;;;11.55;;
46006;SDS011;31738;50.188;8.524;2024-03-08T12:49:26;24.88;;;11.85;;
46006;SDS011;31738;50.188;8.524;2024-03-08T12:51:52;23.27;;;11.45;;
46006;SDS011;31738;50.188;8.524;2024-03-08T12:54:17;21.65;;;11.10;;
46006;SDS011;31738;50.188;8.524;2024-03-08T12:56:43;24.25;;;11.50;;
46006;SDS011;31738;50.188;8.524;2024-03-08T12:59:08;22.55;;;11.30;;
46006;SDS011;31738;50.188;8.524;2024-03-08T13:01:35;23.60;;;11.20;;
46006;SDS011;31738;50.188;8.524;2024-03-08T13:04:03;24.15;;;10.90;;
46006;SDS011;31738;50.188;8.524;2024-03-08T13:06:31;25.35;;;12.25;;
46006;SDS011;31738;50.188;8.524;2024-03-08T13:08:58;24.27;;;11.88;;
46006;SDS011;31738;50.188;8.524;2024-03-08T13:11:26;25.70;;;12.20;;
46006;SDS011;31738;50.188;8.524;2024-03-08T13:13:52;24.13;;;12.25;;
46006;SDS011;31738;50.188;8.524;2024-03-08T13:16:18;21.27;;;11.38;;
46006;SDS011;31738;50.188;8.524;2024-03-08T13:18:46;25.85;;;12.70;;
46006;SDS011;31738;50.188;8.524;2024-03-08T13:21:15;24.05;;;11.60;;
46006;SDS011;31738;50.188;8.524;2024-03-08T13:23:43;27.98;;;12.70;;
46006;SDS011;31738;50.188;8.524;2024-03-08T13:26:14;24.52;;;12.20;;
46006;SDS011;31738;50.188;8.524;2024-03-08T13:28:43;26.50;;;12.90;;
46006;SDS011;31738;50.188;8.524;2024-03-08T13:31:14;25.48;;;12.23;;
46006;SDS011;31738;50.188;8.524;2024-03-08T13:33:40;24.80;;;11.90;;
46006;SDS011;31738;50.188;8.524;2024-03-08T13:36:08;24.08;;;12.57;;
46006;SDS011;31738;50.188;8.524;2024-03-08T13:38:43;24.10;;;12.32;;
46006;SDS011;31738;50.188;8.524;2024-03-08T13:41:13;28.67;;;12.93;;
46006;SDS011;31738;50.188;8.524;2024-03-08T13:43:45;27.85;;;12.65;;
46006;SDS011;31738;50.188;8.524;2024-03-08T13:46:15;27.88;;;13.73;;
46006;SDS011;31738;50.188;8.524;2024-03-08T13:48:44;28.10;;;13.38;;
46006;SDS011;31738;50.188;8.524;2024-03-08T13:51:13;31.00;;;14.25;;
46006;SDS011;31738;50.188;8.524;2024-03-08T13:53:40;26.77;;;12.30;;
46006;SDS011;31738;50.188;8.524;2024-03-08T13:56:06;26.50;;;12.60;;
46006;SDS011;31738;50.188;8.524;2024-03-08T13:58:35;26.10;;;12.85;;
46006;SDS011;31738;50.188;8.524;2024-03-08T14:01:01;28.85;;;12.23;;
46006;SDS011;31738;50.188;8.524;2024-03-08T14:03:28;23.63;;;11.32;;
46006;SDS011;31738;50.188;8.524;2024-03-08T14:05:54;27.48;;;13.32;;
46006;SDS011;31738;50.188;8.524;2024-03-08T14:08:20;26.65;;;13.13;;
46006;SDS011;31738;50.188;8.524;2024-03-08T14:10:47;30.55;;;13.70;;
46006;SDS011;31738;50.188;8.524;2024-03-08T14:13:14;28.98;;;13.98;;
46006;SDS011;31738;50.188;8.524;2024-03-08T14:15:41;28.42;;;14.35;;
46006;SDS011;31738;50.188;8.524;2024-03-08T14:18:07;26.50;;;13.43;;
46006;SDS011;31738;50.188;8.524;2024-03-08T14:20:33;28.63;;;13.52;;
46006;SDS011;31738;50.188;8.524;2024-03-08T14:22:58;25.92;;;12.93;;
46006;SDS011;31738;50.188;8.524;2024-03-08T14:25:24;28.05;;;13.30;;
46006;SDS011;31738;50.188;8.524;2024-03-08T14:27:50;27.08;;;12.35;;
46006;SDS011;31738;50.188;8.524;2024-03-08T14:30:19;31.58;;;14.40;;
46006;SDS011;31738;50.188;8.524;2024-03-08T14:32:59;29.02;;;13.90;;
46006;SDS011;31738;50.188;8.524;2024-03-08T14:35:25;26.83;;;11.57;;
46006;SDS011;31738;50.188;8.524;2024-03-08T14:37:52;26.70;;;13.07;;
46006;SDS011;31738;50.188;8.524;2024-03-08T14:40:22;30.90;;;14.02;;
46006;SDS011;31738;50.188;8.524;2024-03-08T14:42:49;28.40;;;13.70;;
46006;SDS011;31738;50.188;8.524;2024-03-08T14:45:15;27.40;;;13.30;;
46006;SDS011;31738;50.188;8.524;2024-03-08T14:47:41;30.95;;;13.45;;
46006;SDS011;31738;50.188;8.524;2024-03-08T14:50:07;28.38;;;12.63;;
46006;SDS011;31738;50.188;8.524;2024-03-08T14:52:35;27.73;;;13.23;;
46006;SDS011;31738;50.188;8.524;2024-03-08T14:55:00;27.80;;;13.20;;
46006;SDS011;31738;50.188;8.524;2024-03-08T14:57:31;27.42;;;12.98;;
46006;SDS011;31738;50.188;8.524;2024-03-08T14:59:58;28.38;;;13.00;;
46006;SDS011;31738;50.188;8.524;2024-03-08T15:02:30;28.17;;;12.52;;
46006;SDS011;31738;50.188;8.524;2024-03-08T15:04:57;27.77;;;12.27;;
46006;SDS011;31738;50.188;8.524;2024-03-08T15:07:23;25.88;;;13.45;;
46006;SDS011;31738;50.188;8.524;2024-03-08T15:09:51;26.77;;;12.82;;
46006;SDS011;31738;50.188;8.524;2024-03-08T15:12:16;26.77;;;12.77;;
46006;SDS011;31738;50.188;8.524;2024-03-08T15:14:42;26.00;;;12.55;;
46006;SDS011;31738;50.188;8.524;2024-03-08T15:17:12;27.73;;;12.60;;
46006;SDS011;31738;50.188;8.524;2024-03-08T15:19:46;22.77;;;9.52;;